Time;durP1;ratioP1;P1;durP2;ratioP2;P2;SDS_P1;SDS_P2;PMS_P1;PMS_P2;Temp;Humidity;BMP_temperature;BMP_pressure;BME280_temperature;BME280_humidity;BME280_pressure;Samples;Min_cycle;Max_cycle;Signal;HPM_P1;HPM_P2
2021/06/04 00:00:29;;;;;;;3.70;3.40;;;22.80;97.70;;;;;;5013849;28;20540;-72
2021/06/04 00:02:57;;;;;;;3.73;3.43;;;22.80;97.70;;;;;;5040663;28;20531;-72
2021/06/04 00:05:29;;;;;;;3.10;2.90;;;22.80;97.80;;;;;;5046804;28;20443;-72
2021/06/04 00:07:55;;;;;;;3.60;3.30;;;22.70;97.80;;;;;;5029675;28;20454;-72
2021/06/04 00:10:37;;;;;;;3.20;3.00;;;22.70;97.90;;;;;;5040790;28;20451;-72
2021/06/04 00:13:30;;;;;;;3.17;2.97;;;22.70;97.80;;;;;;5051783;28;20238;-72
2021/06/04 00:16:04;;;;;;;3.20;2.90;;;22.70;97.90;;;;;;5050432;28;20493;-72
2021/06/04 00:18:31;;;;;;;3.60;3.30;;;22.70;98.00;;;;;;5066927;28;20945;-72
2021/06/04 00:20:59;;;;;;;3.70;3.40;;;22.70;98.00;;;;;;5034003;28;20508;-72
2021/06/04 00:23:25;;;;;;;3.57;3.27;;;22.60;98.00;;;;;;5032689;28;20471;-72
2021/06/04 00:25:51;;;;;;;4.80;3.37;;;22.60;98.10;;;;;;5061905;28;20479;-72
2021/06/04 00:28:17;;;;;;;3.67;3.37;;;22.60;98.10;;;;;;5061248;28;20505;-72
2021/06/04 00:30:42;;;;;;;3.47;3.17;;;22.60;98.10;;;;;;5030890;28;20219;-71
2021/06/04 00:33:09;;;;;;;3.37;3.07;;;22.60;98.10;;;;;;5050833;28;20295;-72
2021/06/04 00:35:38;;;;;;;4.27;3.50;;;22.60;98.30;;;;;;5049274;28;20642;-72
2021/06/04 00:38:08;;;;;;;3.87;3.57;;;22.50;98.10;;;;;;5050363;28;20466;-70
2021/06/04 00:40:51;;;;;;;3.80;3.50;;;22.50;98.20;;;;;;5066646;28;20481;-71
2021/06/04 00:43:19;;;;;;;6.60;3.33;;;22.40;98.40;;;;;;5066179;28;20507;-72
2021/06/04 00:45:50;;;;;;;3.70;3.37;;;22.40;98.60;;;;;;5035191;28;20512;-71
2021/06/04 00:48:18;;;;;;;3.60;3.30;;;22.40;98.40;;;;;;5029410;28;20457;-72
2021/06/04 00:51:03;;;;;;;3.70;3.40;;;22.40;98.50;;;;;;5045599;28;20451;-71
2021/06/04 00:53:31;;;;;;;4.37;3.97;;;22.40;98.40;;;;;;5029150;28;20481;-72
2021/06/04 00:55:59;;;;;;;3.97;3.67;;;22.40;98.50;;;;;;5055940;28;20539;-72
2021/06/04 00:58:35;;;;;;;3.70;3.40;;;22.40;98.50;;;;;;5022743;28;20471;-71
2021/06/04 01:01:04;;;;;;;4.47;4.17;;;22.30;98.40;;;;;;5066263;28;20456;-72
2021/06/04 01:03:34;;;;;;;6.70;4.50;;;22.20;98.80;;;;;;5050203;28;20893;-72
2021/06/04 01:06:26;;;;;;;3.43;3.20;;;22.20;98.70;;;;;;5066150;28;20454;-72
2021/06/04 01:09:02;;;;;;;4.20;3.73;;;22.20;98.70;;;;;;5016244;28;20457;-72
2021/06/04 01:11:41;;;;;;;3.87;3.47;;;22.20;98.80;;;;;;5065980;28;20504;-72
2021/06/04 01:14:55;;;;;;;3.27;3.07;;;22.10;98.70;;;;;;5065675;28;20478;-72
2021/06/04 01:17:29;;;;;;;3.93;3.53;;;22.10;98.70;;;;;;5037746;28;20459;-72
2021/06/04 01:20:17;;;;;;;4.40;3.87;;;22.10;98.80;;;;;;5029743;28;20446;-72
2021/06/04 01:23:07;;;;;;;3.80;3.50;;;22.10;98.80;;;;;;5062535;28;20477;-72
2021/06/04 01:25:48;;;;;;;3.70;3.43;;;22.10;98.80;;;;;;5045833;28;20903;-72
2021/06/04 01:28:43;;;;;;;3.57;3.30;;;22.10;98.90;;;;;;5043953;28;20538;-72
2021/06/04 01:31:25;;;;;;;3.53;3.23;;;22.10;98.80;;;;;;5044653;28;20450;-72
2021/06/04 01:34:09;;;;;;;3.87;3.57;;;22.00;98.80;;;;;;5029272;28;20454;-72
2021/06/04 01:36:44;;;;;;;3.50;3.30;;;22.10;98.90;;;;;;5045200;28;20443;-72
2021/06/04 01:39:19;;;;;;;4.07;3.77;;;22.00;98.90;;;;;;5012810;28;20467;-72
2021/06/04 01:41:50;;;;;;;3.97;3.57;;;22.00;99.00;;;;;;5045543;28;20505;-72
2021/06/04 01:44:36;;;;;;;3.70;3.40;;;21.90;99.50;;;;;;5024136;28;20460;-72
2021/06/04 01:47:13;;;;;;;3.70;3.40;;;21.90;99.00;;;;;;5065011;28;20520;-72
2021/06/04 01:49:46;;;;;;;3.53;3.23;;;21.90;99.20;;;;;;5015755;28;20599;-72
2021/06/04 01:52:20;;;;;;;4.00;3.70;;;21.90;99.10;;;;;;5065843;28;21040;-72
2021/06/04 01:54:59;;;;;;;3.80;3.50;;;21.90;99.10;;;;;;5031588;28;20449;-72
2021/06/04 01:57:34;;;;;;;3.97;3.67;;;21.90;99.20;;;;;;5020201;28;20796;-72
2021/06/04 02:00:13;;;;;;;4.37;3.83;;;21.90;99.20;;;;;;5011962;28;20465;-72
2021/06/04 02:02:46;;;;;;;4.20;3.90;;;21.90;99.10;;;;;;5021067;28;20462;-72
2021/06/04 02:05:36;;;;;;;4.17;3.87;;;21.80;99.20;;;;;;5025706;28;20464;-72
2021/06/04 02:08:06;;;;;;;5.20;4.43;;;21.80;99.20;;;;;;5012139;28;20479;-71
2021/06/04 02:10:39;;;;;;;4.40;4.10;;;21.90;99.30;;;;;;5011953;28;20508;-72
2021/06/04 02:13:08;;;;;;;4.00;3.70;;;21.80;99.30;;;;;;5039061;28;20537;-72
2021/06/04 02:15:45;;;;;;;4.93;4.50;;;21.80;99.30;;;;;;5058269;28;20457;-72
2021/06/04 02:18:32;;;;;;;4.30;4.00;;;21.60;99.60;;;;;;5053172;28;20474;-72
2021/06/04 02:21:19;;;;;;;4.17;3.77;;;21.60;99.60;;;;;;5020508;28;20509;-72
2021/06/04 02:23:58;;;;;;;4.20;3.80;;;21.60;99.50;;;;;;5009082;28;20448;-72
2021/06/04 02:26:39;;;;;;;4.07;3.70;;;21.60;99.60;;;;;;4994052;28;20452;-72
2021/06/04 02:29:32;;;;;;;7.53;5.47;;;21.60;99.60;;;;;;5012720;28;20454;-71
2021/06/04 02:32:19;;;;;;;12.67;8.20;;;21.60;99.60;;;;;;5015993;28;20998;-72
2021/06/04 02:35:00;;;;;;;6.77;6.07;;;21.50;99.80;;;;;;5048840;28;20446;-72
2021/06/04 02:37:44;;;;;;;6.87;5.50;;;21.40;99.90;;;;;;5017348;28;20542;-71
2021/06/04 02:40:31;;;;;;;5.17;4.67;;;21.50;99.90;;;;;;5012329;28;20481;-72
2021/06/04 02:43:05;;;;;;;5.10;4.60;;;21.50;99.70;;;;;;5012121;28;20475;-70
2021/06/04 02:45:43;;;;;;;5.03;4.53;;;21.50;99.70;;;;;;5047201;28;20541;-72
2021/06/04 02:48:13;;;;;;;4.30;3.90;;;21.50;99.60;;;;;;5032083;28;20508;-72
2021/06/04 02:50:52;;;;;;;4.20;3.90;;;21.50;99.70;;;;;;5031440;28;20450;-72
2021/06/04 02:53:40;;;;;;;4.93;4.53;;;21.40;99.60;;;;;;5016911;28;20855;-72
2021/06/04 02:56:17;;;;;;;4.73;4.33;;;21.40;99.60;;;;;;5041474;28;20454;-72
2021/06/04 02:58:52;;;;;;;5.00;4.60;;;21.40;99.60;;;;;;5066952;28;20465;-71
2021/06/04 03:01:21;;;;;;;4.63;4.23;;;21.40;99.90;;;;;;5068444;28;20461;-72
2021/06/04 03:03:51;;;;;;;4.53;4.13;;;21.30;99.90;;;;;;5051891;28;20450;-72
2021/06/04 03:06:21;;;;;;;5.07;4.57;;;21.30;99.90;;;;;;5050908;28;20588;-72
2021/06/04 03:08:49;;;;;;;4.90;4.27;;;21.30;99.90;;;;;;5035697;28;20454;-72
2021/06/04 03:11:17;;;;;;;4.60;4.20;;;21.30;99.90;;;;;;5051908;28;20459;-71
2021/06/04 03:13:44;;;;;;;4.90;4.50;;;21.30;99.90;;;;;;5068298;28;20504;-71
2021/06/04 03:16:16;;;;;;;4.27;3.90;;;21.30;99.90;;;;;;5051521;28;20458;-72
2021/06/04 03:18:49;;;;;;;5.23;4.73;;;21.30;99.90;;;;;;5051260;28;20466;-72
2021/06/04 03:21:57;;;;;;;7.93;4.80;;;21.20;99.90;;;;;;5051846;28;21017;-72
2021/06/04 03:24:27;;;;;;;4.10;3.80;;;21.10;99.90;;;;;;5017714;28;20529;-72
2021/06/04 03:26:54;;;;;;;4.37;4.07;;;21.10;99.90;;;;;;5051750;28;20460;-71
2021/06/04 03:29:22;;;;;;;4.97;4.47;;;21.10;99.90;;;;;;5067404;28;20461;-72
2021/06/04 03:31:57;;;;;;;4.60;4.20;;;21.20;99.90;;;;;;5068447;28;20466;-71
2021/06/04 03:34:24;;;;;;;5.10;4.70;;;21.10;99.90;;;;;;5050870;28;20447;-71
2021/06/04 03:36:55;;;;;;;5.47;5.07;;;21.00;99.90;;;;;;5034864;28;20477;-72
2021/06/04 03:39:27;;;;;;;4.10;3.60;;;20.90;99.90;;;;;;5017884;28;20462;-72
2021/06/04 03:41:54;;;;;;;4.60;4.20;;;21.00;99.90;;;;;;5058299;28;20450;-71
2021/06/04 03:44:24;;;;;;;6.83;4.70;;;20.90;99.90;;;;;;5016994;28;20458;-72
2021/06/04 03:46:50;;;;;;;5.07;4.67;;;20.90;99.90;;;;;;5067691;28;20465;-72
2021/06/04 03:49:18;;;;;;;5.37;4.87;;;20.90;99.90;;;;;;5051003;28;20458;-72
2021/06/04 03:51:46;;;;;;;5.03;4.63;;;20.90;99.90;;;;;;5031205;28;20463;-72
2021/06/04 03:54:17;;;;;;;5.60;5.00;;;20.90;99.90;;;;;;5039376;28;20455;-72
2021/06/04 03:56:44;;;;;;;5.90;5.40;;;20.90;99.90;;;;;;5045215;28;20933;-72
2021/06/04 03:59:10;;;;;;;5.10;4.60;;;20.90;99.90;;;;;;5067521;28;20462;-72
2021/06/04 04:01:50;;;;;;;4.80;4.40;;;20.90;99.90;;;;;;5053137;28;20517;-72
2021/06/04 04:04:16;;;;;;;4.60;4.20;;;20.90;99.90;;;;;;5054156;28;20454;-72
2021/06/04 04:06:42;;;;;;;5.37;4.90;;;20.90;99.90;;;;;;5032548;28;20469;-72
2021/06/04 04:09:09;;;;;;;6.57;4.77;;;20.90;99.90;;;;;;5083882;28;20450;-72
2021/06/04 04:11:36;;;;;;;7.20;5.70;;;20.90;99.90;;;;;;5061258;28;20231;-72
2021/06/04 04:14:03;;;;;;;6.10;5.50;;;20.80;99.90;;;;;;5031062;28;20451;-72
2021/06/04 04:16:29;;;;;;;6.00;5.40;;;20.80;99.90;;;;;;5048683;28;20466;-72
2021/06/04 04:18:54;;;;;;;5.53;5.00;;;20.80;99.90;;;;;;5080191;28;20465;-71
2021/06/04 04:21:20;;;;;;;5.20;4.80;;;20.80;99.90;;;;;;5053704;28;20666;-72
2021/06/04 04:23:53;;;;;;;6.50;5.57;;;20.80;99.90;;;;;;5086811;28;20217;-72
2021/06/04 04:26:22;;;;;;;5.50;5.00;;;20.90;99.90;;;;;;5053445;28;20230;-72
2021/06/04 04:28:50;;;;;;;6.73;6.07;;;20.80;99.90;;;;;;5028850;28;20445;-72
2021/06/04 04:31:19;;;;;;;5.23;4.70;;;20.80;99.90;;;;;;5049430;28;20830;-71
2021/06/04 04:33:45;;;;;;;5.30;4.90;;;20.80;99.90;;;;;;5049001;28;20454;-72
2021/06/04 04:36:17;;;;;;;5.30;4.80;;;20.80;99.90;;;;;;5033396;28;20481;-72
2021/06/04 04:38:49;;;;;;;6.10;5.30;;;20.80;99.90;;;;;;5047417;28;20850;-72
2021/06/04 04:41:15;;;;;;;5.07;4.33;;;20.80;99.90;;;;;;5033562;28;20877;-72
2021/06/04 04:43:46;;;;;;;5.43;4.80;;;20.80;99.90;;;;;;5065287;28;20435;-71
2021/06/04 04:46:14;;;;;;;7.53;5.10;;;20.80;99.90;;;;;;5066109;28;20474;-71
2021/06/04 04:48:40;;;;;;;5.00;4.60;;;20.70;99.90;;;;;;5062709;28;20451;-71
2021/06/04 04:51:07;;;;;;;5.07;4.57;;;20.70;99.90;;;;;;5056625;28;20459;-71
2021/06/04 04:53:34;;;;;;;4.43;4.03;;;20.70;99.90;;;;;;5048364;28;20254;-71
2021/06/04 04:56:00;;;;;;;6.40;4.63;;;20.70;99.90;;;;;;5002774;28;20882;-71
2021/06/04 04:58:26;;;;;;;5.53;5.03;;;20.70;99.90;;;;;;4996757;28;20472;-72
2021/06/04 05:00:54;;;;;;;5.73;4.17;;;20.70;99.90;;;;;;5046419;28;20216;-71
2021/06/04 05:03:21;;;;;;;5.83;5.33;;;20.70;99.90;;;;;;5029505;28;20295;-71
2021/06/04 05:05:47;;;;;;;6.30;5.70;;;20.70;99.90;;;;;;5051007;28;21008;-71
2021/06/04 05:08:15;;;;;;;5.30;4.80;;;20.70;99.90;;;;;;5065724;28;20454;-70
2021/06/04 05:10:40;;;;;;;5.80;5.30;;;20.70;99.90;;;;;;5032589;28;20891;-70
2021/06/04 05:13:07;;;;;;;7.87;6.50;;;20.70;99.90;;;;;;5032795;28;20541;-70
2021/06/04 05:15:36;;;;;;;5.90;5.40;;;20.60;99.90;;;;;;5032806;28;20690;-70
2021/06/04 05:18:03;;;;;;;6.33;5.73;;;20.60;99.90;;;;;;5047931;28;20471;-70
2021/06/04 05:20:29;;;;;;;6.07;5.57;;;20.60;99.90;;;;;;5048800;28;20458;-70
2021/06/04 05:22:57;;;;;;;6.23;5.60;;;20.60;99.90;;;;;;5032907;28;20450;-70
2021/06/04 05:25:27;;;;;;;6.20;5.63;;;20.60;99.90;;;;;;5031902;28;20459;-70
2021/06/04 05:27:53;;;;;;;5.57;5.07;;;20.70;99.90;;;;;;5028895;28;20966;-70
2021/06/04 05:30:29;;;;;;;6.70;6.00;;;20.70;99.90;;;;;;5048843;28;20468;-71
2021/06/04 05:32:56;;;;;;;8.10;7.07;;;20.70;99.90;;;;;;5048970;28;20262;-70
2021/06/04 05:35:24;;;;;;;6.47;5.87;;;20.70;99.90;;;;;;5065505;28;20450;-70
2021/06/04 05:37:50;;;;;;;7.23;6.53;;;20.70;99.90;;;;;;5065819;28;20446;-71
2021/06/04 05:40:26;;;;;;;5.97;5.37;;;20.70;99.90;;;;;;5066124;28;20445;-70
2021/06/04 05:42:52;;;;;;;6.30;5.70;;;20.70;99.90;;;;;;5050344;28;20223;-71
2021/06/04 05:45:21;;;;;;;6.20;5.50;;;20.70;99.90;;;;;;5049317;28;20541;-70
2021/06/04 05:47:48;;;;;;;8.03;5.30;;;20.70;99.90;;;;;;5050281;28;20226;-70
2021/06/04 05:50:18;;;;;;;5.50;5.10;;;20.70;99.90;;;;;;5065774;28;20455;-70
2021/06/04 05:52:45;;;;;;;5.17;4.67;;;20.80;99.90;;;;;;5048517;28;20437;-70
2021/06/04 05:55:13;;;;;;;6.13;5.63;;;20.80;99.90;;;;;;5029080;28;20887;-70
2021/06/04 05:57:39;;;;;;;6.27;5.67;;;20.90;99.90;;;;;;5044558;28;20547;-70
2021/06/04 06:00:12;;;;;;;6.90;6.20;;;20.90;99.90;;;;;;5019201;28;20896;-70
2021/06/04 06:02:39;;;;;;;6.33;5.83;;;20.90;99.90;;;;;;5043196;28;20235;-70
2021/06/04 06:05:05;;;;;;;6.43;5.83;;;20.90;99.90;;;;;;5045560;28;20447;-70
2021/06/04 06:07:31;;;;;;;5.77;5.27;;;21.00;99.90;;;;;;5047876;28;20814;-70
2021/06/04 06:09:57;;;;;;;5.87;5.33;;;21.10;99.90;;;;;;5049899;28;21015;-70
2021/06/04 06:12:23;;;;;;;7.67;6.10;;;21.10;99.90;;;;;;5013072;28;20231;-71
2021/06/04 06:14:48;;;;;;;6.30;5.70;;;21.10;99.90;;;;;;5082039;28;20269;-70
2021/06/04 06:17:14;;;;;;;5.73;5.23;;;21.20;99.90;;;;;;5032131;28;20227;-70
2021/06/04 06:19:40;;;;;;;5.20;4.80;;;21.20;99.90;;;;;;5049410;28;20228;-70
2021/06/04 06:22:06;;;;;;;6.00;5.37;;;21.30;99.90;;;;;;5032189;28;20636;-71
2021/06/04 06:24:31;;;;;;;5.63;5.10;;;21.30;99.90;;;;;;5048445;28;20679;-70
2021/06/04 06:26:57;;;;;;;5.40;5.00;;;21.30;99.90;;;;;;5050152;28;20227;-71
2021/06/04 06:29:26;;;;;;;5.00;4.60;;;21.40;99.90;;;;;;5031847;28;20212;-70
2021/06/04 06:31:52;;;;;;;5.33;4.80;;;21.40;99.90;;;;;;5032204;28;20478;-71
2021/06/04 06:37:42;;;;;;;4.50;4.10;;;21.60;99.90;;;;;;5060735;28;20309;-71
2021/06/04 06:40:10;;;;;;;4.43;4.13;;;21.60;99.90;;;;;;5055841;28;20523;-71
2021/06/04 06:42:50;;;;;;;4.20;3.90;;;21.70;99.90;;;;;;5046931;28;20647;-71
2021/06/04 06:45:16;;;;;;;4.43;4.03;;;21.80;99.90;;;;;;5066593;28;20456;-70
2021/06/04 06:47:42;;;;;;;4.27;3.87;;;21.80;99.90;;;;;;5078556;28;21111;-71
2021/06/04 06:50:10;;;;;;;6.10;3.97;;;21.90;99.90;;;;;;5035416;28;20220;-70
2021/06/04 06:52:36;;;;;;;4.13;3.83;;;22.00;99.90;;;;;;5076455;28;20344;-71
2021/06/04 06:55:03;;;;;;;4.50;4.10;;;22.10;99.90;;;;;;5046854;28;20450;-70
2021/06/04 06:57:29;;;;;;;4.53;4.17;;;22.20;99.90;;;;;;5056762;28;20211;-71
2021/06/04 06:59:56;;;;;;;4.23;3.90;;;22.30;99.90;;;;;;5039593;28;20798;-70
2021/06/04 07:02:22;;;;;;;4.60;4.17;;;22.40;99.90;;;;;;5073478;28;20219;-71
2021/06/04 07:04:49;;;;;;;3.57;3.37;;;22.50;99.90;;;;;;5055108;28;20448;-71
2021/06/04 07:07:17;;;;;;;3.27;2.97;;;22.50;99.90;;;;;;5088957;28;20484;-71
2021/06/04 07:09:47;;;;;;;3.57;3.27;;;22.70;99.90;;;;;;5050643;28;20867;-71
2021/06/04 07:12:14;;;;;;;2.97;2.77;;;22.80;99.90;;;;;;5038524;28;20461;-71
2021/06/04 07:14:40;;;;;;;3.37;3.13;;;22.80;99.90;;;;;;5088162;28;20453;-73
2021/06/04 07:17:06;;;;;;;3.53;3.23;;;22.80;99.90;;;;;;5055045;28;20463;-73
2021/06/04 07:19:35;;;;;;;3.90;3.60;;;22.90;99.90;;;;;;5064944;28;20466;-73
2021/06/04 07:22:02;;;;;;;3.87;3.40;;;23.00;99.90;;;;;;5035285;28;20529;-73
2021/06/04 07:24:40;;;;;;;3.93;3.63;;;23.10;99.90;;;;;;5053735;28;20460;-74
2021/06/04 07:27:06;;;;;;;3.87;3.53;;;23.20;99.90;;;;;;5060588;28;20462;-74
2021/06/04 07:29:32;;;;;;;5.00;3.73;;;23.30;99.90;;;;;;5035692;28;20457;-73
2021/06/04 07:31:59;;;;;;;7.60;4.10;;;23.40;99.90;;;;;;5062480;28;20454;-73
2021/06/04 07:34:27;;;;;;;4.00;3.70;;;23.50;99.90;;;;;;5087654;28;20484;-73
2021/06/04 07:36:55;;;;;;;4.27;3.97;;;23.60;99.90;;;;;;5010686;28;20450;-73
2021/06/04 07:39:25;;;;;;;4.10;3.80;;;23.60;99.90;;;;;;5064748;28;20513;-73
2021/06/04 07:41:52;;;;;;;3.80;3.50;;;23.70;99.90;;;;;;5082184;28;20441;-70
2021/06/04 07:44:18;;;;;;;3.80;3.50;;;23.90;99.90;;;;;;5066233;28;20450;-73
2021/06/04 07:46:45;;;;;;;5.77;4.10;;;24.10;99.90;;;;;;5034478;28;21037;-73
2021/06/04 07:49:12;;;;;;;4.03;3.73;;;24.20;99.90;;;;;;5066402;28;20461;-73
2021/06/04 07:51:45;;;;;;;4.40;4.10;;;24.30;99.90;;;;;;5033512;28;20458;-73
2021/06/04 07:54:12;;;;;;;3.70;3.40;;;24.30;99.90;;;;;;5078034;28;20554;-74
2021/06/04 07:56:40;;;;;;;4.40;4.00;;;24.40;99.90;;;;;;5062507;28;20469;-73
2021/06/04 07:59:07;;;;;;;4.07;3.53;;;24.50;99.90;;;;;;5047479;28;20465;-74
2021/06/04 08:01:33;;;;;;;4.00;3.60;;;24.60;99.90;;;;;;5013939;28;20478;-73
2021/06/04 08:04:00;;;;;;;3.60;3.30;;;24.70;99.90;;;;;;5013998;28;20970;-73
2021/06/04 08:06:27;;;;;;;3.70;3.50;;;24.80;99.90;;;;;;5024033;28;20547;-73
2021/06/04 08:08:55;;;;;;;3.83;3.60;;;25.00;99.90;;;;;;5058539;28;20590;-73
2021/06/04 08:11:31;;;;;;;4.43;4.03;;;25.20;99.90;;;;;;5070953;28;20449;-73
2021/06/04 08:13:58;;;;;;;5.13;3.90;;;25.30;99.90;;;;;;5040475;28;20517;-73
2021/06/04 08:16:26;;;;;;;4.20;3.83;;;25.40;99.90;;;;;;5079996;28;20505;-73
2021/06/04 08:18:52;;;;;;;7.63;4.37;;;25.50;99.90;;;;;;5065251;28;20477;-73
2021/06/04 08:21:28;;;;;;;3.87;3.57;;;25.60;99.90;;;;;;5054326;28;20457;-74
2021/06/04 08:23:54;;;;;;;4.77;4.37;;;25.60;99.90;;;;;;5048922;28;20218;-73
2021/06/04 08:26:24;;;;;;;4.97;4.57;;;25.70;99.90;;;;;;5048377;28;20454;-73
2021/06/04 08:28:51;;;;;;;4.83;4.47;;;25.80;99.90;;;;;;5045127;28;20239;-73
2021/06/04 08:31:18;;;;;;;4.73;4.10;;;25.80;99.90;;;;;;5032762;28;20537;-73
2021/06/04 08:33:45;;;;;;;4.57;4.27;;;25.90;99.90;;;;;;5046347;28;20516;-74
2021/06/04 08:36:15;;;;;;;5.13;4.73;;;26.00;99.90;;;;;;5026592;28;20554;-74
2021/06/04 08:38:41;;;;;;;4.90;4.37;;;26.10;99.90;;;;;;5044409;28;20477;-72
2021/06/04 08:41:31;;;;;;;4.47;4.00;;;26.20;99.90;;;;;;5049514;28;20473;-72
2021/06/04 08:44:08;;;;;;;4.40;4.10;;;26.30;99.90;;;;;;5015005;28;20477;-72
2021/06/04 08:46:41;;;;;;;4.60;4.20;;;26.30;99.90;;;;;;5032190;28;20540;-72
2021/06/04 08:49:25;;;;;;;4.20;3.90;;;26.40;99.90;;;;;;5050789;28;20525;-72
2021/06/04 08:52:22;;;;;;;3.73;3.53;;;26.40;99.90;;;;;;5044469;28;20457;-71
2021/06/04 08:55:11;;;;;;;3.80;3.50;;;26.70;99.90;;;;;;5053397;28;20508;-71
2021/06/04 08:58:11;;;;;;;4.13;3.83;;;26.90;99.90;;;;;;5067375;28;20505;-71
2021/06/04 09:00:41;;;;;;;4.00;3.60;;;26.90;99.90;;;;;;5028393;28;20884;-71
2021/06/04 09:03:22;;;;;;;3.63;3.43;;;26.90;99.90;;;;;;5012306;28;20536;-71
2021/06/04 09:05:59;;;;;;;4.50;4.10;;;27.00;99.90;;;;;;5029580;28;20444;-71
2021/06/04 09:08:29;;;;;;;4.00;3.70;;;27.00;99.90;;;;;;5043836;28;20449;-71
2021/06/04 09:11:21;;;;;;;4.40;4.10;;;27.10;99.90;;;;;;5044326;28;20953;-71
2021/06/04 09:13:47;;;;;;;4.40;4.10;;;27.20;99.90;;;;;;5046142;28;20962;-71
2021/06/04 09:16:27;;;;;;;4.73;4.43;;;27.30;99.90;;;;;;5058799;28;20449;-71
2021/06/04 09:19:43;;;;;;;6.13;5.83;;;27.50;99.90;;;;;;5061111;28;20222;-71
2021/06/04 09:22:10;;;;;;;3.80;3.50;;;27.50;99.90;;;;;;5045464;28;20214;-71
2021/06/04 09:24:43;;;;;;;4.33;4.00;;;27.50;99.90;;;;;;5078577;28;20319;-71
2021/06/04 09:27:28;;;;;;;3.97;3.67;;;27.60;99.90;;;;;;5065477;28;20470;-71
2021/06/04 09:30:09;;;;;;;4.70;4.30;;;27.70;99.90;;;;;;5032433;28;20223;-71
2021/06/04 09:32:35;;;;;;;5.23;4.73;;;27.90;99.90;;;;;;5049186;28;20272;-71
2021/06/04 09:35:27;;;;;;;5.07;4.68;;;28.20;99.90;;;;;;5029934;28;20215;-71
2021/06/04 09:38:07;;;;;;;6.53;3.45;;;28.40;99.90;;;;;;5028460;28;20667;-71
2021/06/04 09:40:33;;;;;;;7.57;6.10;;;28.50;99.90;;;;;;5048373;28;20215;-71
2021/06/04 09:43:23;;;;;;;4.47;4.18;;;28.60;99.80;;;;;;5061094;28;20215;-71
2021/06/04 09:46:24;;;;;;;5.10;4.80;;;28.60;99.20;;;;;;5028167;28;20220;-71
2021/06/04 09:49:00;;;;;;;5.32;4.32;;;28.70;99.40;;;;;;5029122;28;20222;-71
2021/06/04 09:51:30;;;;;;;6.28;4.85;;;28.60;99.40;;;;;;5027785;28;20285;-71
2021/06/04 09:54:16;;;;;;;5.55;5.05;;;28.50;99.30;;;;;;5062353;28;20215;-71
2021/06/04 09:56:41;;;;;;;4.70;4.30;;;28.60;99.40;;;;;;5067673;28;20437;-71
2021/06/04 09:59:13;;;;;;;6.07;5.25;;;28.60;99.20;;;;;;5030775;28;20597;-72
2021/06/04 10:01:52;;;;;;;4.93;4.47;;;28.50;99.10;;;;;;5047572;28;20223;-71
2021/06/04 10:04:38;;;;;;;4.45;4.15;;;28.60;99.10;;;;;;5043606;28;20247;-74
2021/06/04 10:07:19;;;;;;;4.95;3.92;;;28.70;98.90;;;;;;5010813;28;20306;-74
2021/06/04 10:09:47;;;;;;;4.18;3.88;;;28.80;98.50;;;;;;5051159;28;20306;-74
2021/06/04 10:12:31;;;;;;;4.75;4.30;;;29.00;98.30;;;;;;5068066;28;20265;-74
2021/06/04 10:15:02;;;;;;;4.32;3.92;;;29.00;98.20;;;;;;5067785;28;20219;-74
2021/06/04 10:17:59;;;;;;;4.40;4.10;;;29.20;97.70;;;;;;5064293;28;20229;-74
2021/06/04 10:20:36;;;;;;;4.63;4.22;;;29.30;97.40;;;;;;5065422;28;20221;-74
2021/06/04 10:23:17;;;;;;;4.47;4.07;;;29.50;96.80;;;;;;5016485;28;20215;-74
2021/06/04 10:25:48;;;;;;;4.10;3.80;;;29.50;96.60;;;;;;5073712;28;20619;-74
2021/06/04 10:28:38;;;;;;;4.90;4.50;;;29.60;96.70;;;;;;5054852;28;20218;-74
2021/06/04 10:31:20;;;;;;;4.05;3.75;;;29.60;96.80;;;;;;5086449;28;20264;-74
2021/06/04 10:34:01;;;;;;;7.22;4.50;;;29.60;96.80;;;;;;5034295;28;20215;-74
2021/06/04 10:36:32;;;;;;;3.88;3.67;;;29.50;96.90;;;;;;5068096;28;20230;-74
2021/06/04 10:39:14;;;;;;;5.22;4.82;;;29.60;96.80;;;;;;5051276;28;20605;-74
2021/06/04 10:42:00;;;;;;;3.80;3.60;;;29.70;96.50;;;;;;5050548;28;20222;-74
2021/06/04 10:44:53;;;;;;;5.38;4.05;;;29.80;96.50;;;;;;5016613;28;20276;-74
2021/06/04 10:48:08;;;;;;;5.60;4.05;;;29.90;96.20;;;;;;5035457;28;20226;-74
2021/06/04 10:50:40;;;;;;;3.97;3.50;;;29.90;96.10;;;;;;5038273;28;20280;-74
2021/06/04 10:53:13;;;;;;;4.22;3.90;;;29.90;95.80;;;;;;5062392;28;20231;-74
2021/06/04 10:55:57;;;;;;;4.40;3.85;;;30.00;96.20;;;;;;5066100;28;20227;-74
2021/06/04 10:58:55;;;;;;;3.65;3.45;;;30.00;96.00;;;;;;5077926;28;20594;-74
2021/06/04 11:01:38;;;;;;;3.80;3.55;;;30.10;95.90;;;;;;5052252;28;20310;-74
2021/06/04 11:04:20;;;;;;;3.72;3.42;;;30.20;95.10;;;;;;5052364;28;20219;-74
2021/06/04 11:07:06;;;;;;;3.35;3.05;;;30.40;93.50;;;;;;5057294;28;20244;-74
2021/06/04 11:09:52;;;;;;;3.65;3.35;;;30.50;93.90;;;;;;5043976;28;20210;-74
2021/06/04 11:12:26;;;;;;;3.28;3.08;;;30.50;94.20;;;;;;5076617;28;20218;-74
2021/06/04 11:15:18;;;;;;;3.22;3.03;;;30.50;94.20;;;;;;5056537;28;20724;-74
2021/06/04 11:17:51;;;;;;;3.88;3.20;;;30.60;93.90;;;;;;5074230;28;20676;-74
2021/06/04 11:20:26;;;;;;;3.33;3.03;;;30.70;93.70;;;;;;5058909;28;20215;-74
2021/06/04 11:23:08;;;;;;;3.63;3.33;;;30.80;93.20;;;;;;5075357;28;20305;-72
2021/06/04 11:25:38;;;;;;;3.58;3.28;;;30.90;93.50;;;;;;5030075;28;20238;-72
2021/06/04 11:28:06;;;;;;;3.38;3.17;;;30.90;93.30;;;;;;5057918;28;20298;-72
2021/06/04 11:30:34;;;;;;;3.17;2.97;;;31.00;93.30;;;;;;5047312;28;20220;-72
2021/06/04 11:33:20;;;;;;;3.25;3.05;;;31.00;93.40;;;;;;5048541;28;20223;-72
2021/06/04 11:36:08;;;;;;;3.85;3.55;;;31.10;93.50;;;;;;5048586;28;20691;-72
2021/06/04 11:38:58;;;;;;;3.72;3.42;;;31.30;93.30;;;;;;5066755;28;20232;-72
2021/06/04 11:41:46;;;;;;;3.50;2.90;;;31.40;93.20;;;;;;5065886;28;20690;-72
2021/06/04 11:44:24;;;;;;;2.88;2.67;;;31.40;93.10;;;;;;5034455;28;20227;-72
2021/06/04 11:47:16;;;;;;;3.40;3.10;;;31.50;92.90;;;;;;5050239;28;20602;-72
2021/06/04 11:49:57;;;;;;;4.30;3.90;;;31.60;92.70;;;;;;5034542;28;20234;-72
2021/06/04 11:52:39;;;;;;;3.47;3.17;;;31.60;92.00;;;;;;5054653;28;20215;-72
2021/06/04 11:55:07;;;;;;;3.88;3.45;;;31.70;91.50;;;;;;5051193;28;20210;-72
2021/06/04 11:57:44;;;;;;;3.05;2.83;;;31.80;91.90;;;;;;5019924;28;21027;-72
2021/06/04 12:00:28;;;;;;;4.00;3.58;;;31.80;92.20;;;;;;5066329;28;20218;-72
2021/06/04 12:03:16;;;;;;;4.20;3.80;;;31.80;91.90;;;;;;5049335;28;20235;-72
2021/06/04 12:06:22;;;;;;;3.53;3.22;;;31.80;91.80;;;;;;5040164;28;20227;-72
2021/06/04 12:08:52;;;;;;;3.55;3.25;;;31.90;91.90;;;;;;5025113;28;20299;-74
2021/06/04 12:11:17;;;;;;;3.38;3.17;;;32.20;89.40;;;;;;5079875;28;20212;-75
2021/06/04 12:13:49;;;;;;;3.78;3.20;;;32.40;89.30;;;;;;5031600;28;20581;-74
2021/06/04 12:16:21;;;;;;;3.60;3.40;;;32.50;88.30;;;;;;5060392;28;20227;-74
2021/06/04 12:19:04;;;;;;;3.83;3.30;;;32.50;88.40;;;;;;5045793;28;20670;-75
2021/06/04 12:21:39;;;;;;;3.60;3.40;;;32.50;89.40;;;;;;5030827;28;20223;-74
2021/06/04 12:24:17;;;;;;;4.55;3.30;;;32.50;90.00;;;;;;5055422;28;20228;-74
2021/06/04 12:26:45;;;;;;;3.05;2.72;;;32.60;87.80;;;;;;5043868;28;20579;-72
2021/06/04 12:29:52;;;;;;;3.42;3.22;;;32.60;87.90;;;;;;5051262;28;20307;-72
2021/06/04 12:32:24;;;;;;;3.58;3.35;;;32.70;88.10;;;;;;5043861;28;20211;-72
2021/06/04 12:34:50;;;;;;;3.88;3.58;;;32.80;88.60;;;;;;5064288;28;20219;-72
2021/06/04 12:37:25;;;;;;;4.45;3.58;;;32.80;88.60;;;;;;5031377;28;20216;-72
2021/06/04 12:40:15;;;;;;;3.38;3.17;;;32.90;88.70;;;;;;5028721;28;20255;-72
2021/06/04 12:42:42;;;;;;;3.72;3.42;;;33.00;89.20;;;;;;5050715;28;20307;-73
2021/06/04 12:45:25;;;;;;;3.33;3.13;;;33.00;89.80;;;;;;5030352;28;20285;-72
2021/06/04 12:47:57;;;;;;;3.28;2.97;;;33.10;85.80;;;;;;5063591;28;20214;-73
2021/06/04 12:50:37;;;;;;;2.63;2.53;;;33.00;84.30;;;;;;5035414;28;20736;-72
2021/06/04 12:53:12;;;;;;;3.50;3.15;;;33.00;85.90;;;;;;5083048;28;20214;-72
2021/06/04 12:55:41;;;;;;;3.15;2.95;;;33.10;85.40;;;;;;5011926;28;20229;-72
2021/06/04 12:58:31;;;;;;;3.13;2.92;;;33.20;83.30;;;;;;5036775;28;20734;-73
2021/06/04 13:01:27;;;;;;;3.90;3.08;;;33.20;82.80;;;;;;5022914;28;20303;-72
2021/06/04 13:04:11;;;;;;;3.47;2.90;;;33.10;82.70;;;;;;5063582;28;20236;-72
2021/06/04 13:06:40;;;;;;;3.65;3.35;;;33.30;82.20;;;;;;5049681;28;20227;-73
2021/06/04 13:09:09;;;;;;;3.35;3.05;;;33.30;80.90;;;;;;5048721;28;20840;-72
2021/06/04 13:11:41;;;;;;;3.08;2.97;;;33.30;82.50;;;;;;5030698;28;20285;-72
2021/06/04 13:14:30;;;;;;;3.15;2.85;;;33.30;82.60;;;;;;5029922;28;20228;-72
2021/06/04 13:17:20;;;;;;;3.58;2.97;;;33.30;82.20;;;;;;5030171;28;20698;-72
2021/06/04 13:19:46;;;;;;;6.13;3.75;;;33.30;82.50;;;;;;5064766;28;20280;-72
2021/06/04 13:22:20;;;;;;;3.40;3.13;;;33.20;82.40;;;;;;5047085;28;20395;-72
2021/06/04 13:24:46;;;;;;;3.90;3.17;;;33.10;82.20;;;;;;5065601;28;20667;-72
2021/06/04 13:27:34;;;;;;;3.83;3.63;;;33.00;82.40;;;;;;5048904;28;20310;-72